Time;durP1;ratioP1;P1;durP2;ratioP2;P2;SDS_P1;SDS_P2;PMS_P1;PMS_P2;Temp;Humidity;BMP_temperature;BMP_pressure;BME280_temperature;BME280_humidity;BME280_pressure;Samples;Min_cycle;Max_cycle;Signal;HPM_P1;HPM_P2
2021/12/24 00:01:22;;;;;;;165.35;100.30;;;2.40;99.90;;;;;;4955415;28;20090;-74
2021/12/24 00:03:49;;;;;;;171.55;104.88;;;2.40;99.90;;;;;;4955791;28;20110;-77
2021/12/24 00:06:15;;;;;;;175.13;103.13;;;2.50;99.90;;;;;;4955344;28;20043;-75
2021/12/24 00:08:43;;;;;;;176.93;104.45;;;2.50;99.90;;;;;;4955583;28;20047;-77
2021/12/24 00:11:09;;;;;;;173.30;103.00;;;2.50;99.90;;;;;;4955709;28;20028;-76
2021/12/24 00:13:41;;;;;;;192.75;112.75;;;2.50;99.90;;;;;;4955702;29;20256;-76
2021/12/24 00:18:52;;;;;;;124.95;78.50;;;2.50;99.90;;;;;;4955167;29;20027;-77
2021/12/24 00:37:29;;;;;;;119.53;74.28;;;2.30;99.90;;;;;;4953692;29;20046;-74
2021/12/24 00:42:24;;;;;;;112.18;68.55;;;2.30;99.90;;;;;;4955208;29;20038;-77
2021/12/24 00:44:49;;;;;;;131.55;82.82;;;2.30;99.90;;;;;;4955206;29;20035;-71
2021/12/24 00:47:15;;;;;;;234.57;135.48;;;2.40;99.90;;;;;;4937688;29;20077;-77
2021/12/24 00:49:42;;;;;;;236.00;133.40;;;2.40;99.90;;;;;;4953329;29;20090;-76
2021/12/24 00:52:21;;;;;;;139.10;86.05;;;2.30;99.90;;;;;;4954933;29;20030;-70
2021/12/24 00:55:05;;;;;;;137.82;91.00;;;2.40;99.90;;;;;;4953568;29;20037;-77
2021/12/24 00:57:36;;;;;;;137.57;86.65;;;2.30;99.90;;;;;;4953657;29;20031;-73
2021/12/24 01:00:15;;;;;;;125.28;79.78;;;2.40;99.90;;;;;;4953545;29;20560;-72
2021/12/24 01:02:42;;;;;;;120.40;78.50;;;2.30;99.90;;;;;;4954880;29;20107;-77
2021/12/24 01:05:10;;;;;;;118.28;79.07;;;2.40;99.90;;;;;;4953480;29;20047;-76
2021/12/24 01:07:38;;;;;;;110.90;71.97;;;2.40;99.90;;;;;;4953631;29;20049;-70
2021/12/24 01:10:07;;;;;;;108.45;66.80;;;2.40;99.90;;;;;;4954914;28;20033;-74
2021/12/24 01:12:33;;;;;;;145.48;92.80;;;2.30;99.90;;;;;;4954709;29;20363;-74
2021/12/24 01:14:59;;;;;;;122.43;82.25;;;2.30;99.90;;;;;;4953643;29;20074;-74
2021/12/24 01:17:51;;;;;;;113.68;72.28;;;2.30;99.90;;;;;;4937590;29;20031;-75
2021/12/24 01:25:32;;;;;;;141.23;94.18;;;2.30;99.90;;;;;;4954558;29;20027;-77
2021/12/24 01:28:26;;;;;;;155.32;95.07;;;2.30;99.90;;;;;;4937330;29;20047;-71
2021/12/24 01:42:41;;;;;;;127.75;81.30;;;2.50;99.90;;;;;;4952626;29;20071;-77
2021/12/24 01:44:24;;;;;;;120.73;76.03;;;2.50;99.90;;;;;;4955029;28;20031;-74
2021/12/24 01:47:05;;;;;;;117.72;70.63;;;2.50;99.90;;;;;;4961620;29;20473;-75
2021/12/24 01:49:32;;;;;;;118.07;71.38;;;2.50;99.90;;;;;;4956969;28;20050;-72
2021/12/24 01:52:02;;;;;;;147.52;87.38;;;2.60;99.90;;;;;;4940922;29;20058;-76
2021/12/24 01:54:33;;;;;;;171.00;94.57;;;2.60;99.90;;;;;;4956761;29;20035;-77
2021/12/24 01:56:59;;;;;;;133.07;84.55;;;2.60;99.90;;;;;;4956955;29;20036;-77
2021/12/24 01:59:29;;;;;;;150.95;94.95;;;2.60;99.90;;;;;;4978695;28;20026;-76
2021/12/24 02:01:58;;;;;;;156.77;92.90;;;2.70;99.90;;;;;;4947825;29;20123;-76
2021/12/24 02:04:23;;;;;;;163.10;95.95;;;2.70;99.90;;;;;;4956869;28;20071;-76
2021/12/24 02:06:50;;;;;;;157.82;97.97;;;2.70;99.90;;;;;;4940648;28;20051;-77
2021/12/24 02:09:17;;;;;;;184.43;111.80;;;2.70;99.90;;;;;;4940737;29;20043;-76
2021/12/24 02:11:44;;;;;;;188.75;111.20;;;2.70;99.90;;;;;;4940732;29;20477;-69
2021/12/24 02:14:20;;;;;;;161.30;97.43;;;2.70;99.90;;;;;;4957047;29;20035;-76
2021/12/24 02:28:24;;;;;;;133.00;83.53;;;2.50;99.90;;;;;;4957550;29;20042;-76
2021/12/24 02:30:20;;;;;;;150.63;84.10;;;2.50;99.90;;;;;;4947118;29;20040;-78
2021/12/24 02:32:46;;;;;;;128.30;78.28;;;2.60;99.90;;;;;;4957267;29;20034;-77
2021/12/24 02:35:12;;;;;;;140.05;82.85;;;2.50;99.90;;;;;;4940035;29;20034;-77
2021/12/24 02:37:38;;;;;;;130.05;80.35;;;2.50;99.90;;;;;;4956158;29;20038;-76
2021/12/24 02:40:06;;;;;;;140.93;83.25;;;2.50;99.90;;;;;;4940067;29;20423;-77
2021/12/24 02:42:34;;;;;;;126.30;80.82;;;2.60;99.90;;;;;;4957108;29;20019;-77
2021/12/24 02:45:00;;;;;;;131.23;81.25;;;2.60;99.90;;;;;;4955958;29;20039;-70
2021/12/24 02:55:35;;;;;;;122.45;75.28;;;2.60;99.90;;;;;;4915810;29;20092;-76
2021/12/24 02:58:01;;;;;;;148.23;91.53;;;2.50;99.90;;;;;;4916245;29;20060;-70
2021/12/24 03:00:28;;;;;;;180.60;101.32;;;2.50;99.90;;;;;;4916536;29;20086;-77
2021/12/24 03:02:55;;;;;;;152.75;87.43;;;2.60;99.90;;;;;;4916382;29;20032;-69
2021/12/24 03:05:25;;;;;;;158.55;92.95;;;2.60;99.90;;;;;;4916468;29;20510;-76
2021/12/24 03:07:51;;;;;;;152.10;86.55;;;2.70;99.90;;;;;;4916741;29;20504;-74
2021/12/24 03:10:19;;;;;;;145.25;92.28;;;2.70;99.90;;;;;;4916295;29;20036;-77
2021/12/24 03:12:47;;;;;;;139.80;81.63;;;2.80;99.90;;;;;;4916401;29;20036;-76
2021/12/24 03:15:16;;;;;;;141.10;84.28;;;2.80;99.90;;;;;;4915794;29;20048;-74
2021/12/24 03:17:51;;;;;;;138.00;83.72;;;2.80;99.90;;;;;;4915884;29;20033;-74
2021/12/24 03:20:17;;;;;;;150.88;85.40;;;2.80;99.90;;;;;;4900304;29;20036;-76
2021/12/24 03:25:14;;;;;;;120.55;70.47;;;2.80;99.90;;;;;;4916144;29;20031;-73
2021/12/24 03:27:40;;;;;;;137.85;86.03;;;2.70;99.90;;;;;;4950501;29;20059;-71
2021/12/24 03:30:08;;;;;;;137.18;86.82;;;2.70;99.90;;;;;;4955149;28;20055;-75
2021/12/24 03:32:34;;;;;;;117.85;82.60;;;2.70;99.90;;;;;;4955134;29;20023;-74
2021/12/24 03:35:01;;;;;;;113.35;67.78;;;2.80;99.90;;;;;;4954814;29;20031;-70
2021/12/24 03:37:27;;;;;;;102.30;66.93;;;2.80;99.90;;;;;;4939139;29;20039;-73
2021/12/24 03:39:53;;;;;;;94.53;60.53;;;2.80;99.90;;;;;;4956486;29;20466;-75
2021/12/24 03:42:19;;;;;;;95.80;57.85;;;2.80;99.90;;;;;;4938607;29;20043;-76
2021/12/24 03:44:52;;;;;;;85.85;53.67;;;2.80;99.90;;;;;;4954931;29;20086;-76
2021/12/24 03:47:20;;;;;;;86.10;55.03;;;2.80;99.90;;;;;;4955859;29;20063;-77
2021/12/24 03:50:04;;;;;;;89.25;54.90;;;2.90;99.90;;;;;;4938877;29;20031;-76
2021/12/24 03:55:27;;;;;;;94.28;56.97;;;2.90;99.90;;;;;;4954473;29;20122;-73
2021/12/24 03:57:53;;;;;;;92.43;58.03;;;2.90;99.90;;;;;;4955924;29;20031;-70
2021/12/24 04:00:55;;;;;;;108.85;67.20;;;2.90;99.90;;;;;;4953684;29;20102;-71
2021/12/24 04:03:21;;;;;;;114.40;70.57;;;3.00;99.90;;;;;;4953558;29;20043;-70
2021/12/24 04:06:12;;;;;;;117.07;69.97;;;3.00;99.90;;;;;;4953210;28;20118;-72
2021/12/24 04:08:57;;;;;;;129.18;76.18;;;3.00;99.90;;;;;;4953144;28;20086;-76
2021/12/24 04:11:52;;;;;;;125.03;76.95;;;3.10;99.90;;;;;;4896288;29;20156;-76
2021/12/24 04:14:18;;;;;;;119.32;76.90;;;3.20;99.90;;;;;;4880441;29;20069;-75
2021/12/24 04:16:44;;;;;;;126.45;78.07;;;3.20;99.90;;;;;;4896094;29;20775;-74
2021/12/24 04:24:54;;;;;;;138.98;79.45;;;3.20;99.90;;;;;;4895839;29;20489;-76
2021/12/24 04:27:27;;;;;;;130.30;78.45;;;3.20;99.90;;;;;;4895848;29;20056;-70
2021/12/24 04:30:06;;;;;;;129.73;81.05;;;3.20;99.90;;;;;;4880122;29;20507;-69
2021/12/24 04:51:45;;;;;;;107.03;68.13;;;3.20;99.90;;;;;;4933754;29;20031;-70
2021/12/24 05:05:19;;;;;;;131.85;75.85;;;3.20;99.90;;;;;;4932534;29;20075;-76
2021/12/24 05:10:17;;;;;;;171.13;102.65;;;3.10;99.90;;;;;;4932656;29;20062;-77
2021/12/24 05:12:44;;;;;;;219.25;130.40;;;3.10;99.90;;;;;;4932893;29;20025;-70
2021/12/24 05:15:11;;;;;;;276.75;164.95;;;3.20;99.90;;;;;;4932844;29;20038;-73
2021/12/24 05:23:35;;;;;;;122.25;70.40;;;3.30;99.90;;;;;;4952805;28;20043;-77
2021/12/24 05:26:01;;;;;;;112.13;65.35;;;3.40;99.90;;;;;;4952952;29;20085;-69
2021/12/24 05:28:27;;;;;;;96.20;55.78;;;3.60;99.90;;;;;;4936753;29;20039;-77
2021/12/24 05:30:53;;;;;;;74.72;47.08;;;3.70;99.90;;;;;;4953235;29;20106;-77
2021/12/24 05:33:19;;;;;;;78.95;46.08;;;3.80;99.90;;;;;;4954870;29;20505;-77
2021/12/24 05:35:45;;;;;;;90.65;56.75;;;4.00;99.90;;;;;;4954167;29;20030;-77
2021/12/24 05:38:16;;;;;;;85.70;50.83;;;4.00;99.90;;;;;;4964020;28;20076;-77
2021/12/24 05:40:43;;;;;;;75.43;46.30;;;4.00;99.90;;;;;;4979963;28;20030;-75
2021/12/24 05:43:10;;;;;;;93.93;54.08;;;4.10;99.90;;;;;;4977041;28;20046;-77
2021/12/24 05:45:36;;;;;;;83.60;46.55;;;4.10;99.90;;;;;;4961828;29;20023;-74
2021/12/24 05:48:22;;;;;;;92.15;52.75;;;4.10;99.90;;;;;;4962080;29;20039;-76
2021/12/24 05:50:50;;;;;;;88.85;51.72;;;4.00;99.90;;;;;;4974716;28;20477;-75
2021/12/24 05:53:35;;;;;;;122.45;71.90;;;4.10;99.90;;;;;;4964843;29;20087;-74
2021/12/24 05:56:10;;;;;;;115.28;68.97;;;4.10;99.90;;;;;;4975524;28;20031;-74
2021/12/24 05:58:40;;;;;;;98.72;63.45;;;4.00;99.90;;;;;;4977872;28;20040;-71
2021/12/24 06:01:07;;;;;;;90.78;56.78;;;3.90;99.90;;;;;;4974910;28;20023;-72
2021/12/24 06:03:46;;;;;;;127.93;80.47;;;3.80;99.90;;;;;;4977002;28;20043;-75
2021/12/24 06:06:11;;;;;;;116.28;73.60;;;3.80;99.90;;;;;;4962412;29;20113;-72
2021/12/24 06:08:37;;;;;;;102.97;61.55;;;3.80;99.90;;;;;;4962792;29;20043;-77
2021/12/24 06:11:03;;;;;;;99.47;57.42;;;3.90;99.90;;;;;;4960300;29;20034;-76
2021/12/24 06:13:30;;;;;;;102.57;63.47;;;3.90;99.90;;;;;;4962932;28;20140;-70
2021/12/24 06:15:59;;;;;;;120.75;76.60;;;3.90;99.90;;;;;;4962719;28;20020;-77
2021/12/24 06:18:27;;;;;;;124.18;80.82;;;3.80;99.90;;;;;;4961856;29;20074;-77
2021/12/24 06:20:54;;;;;;;125.10;76.45;;;3.80;99.90;;;;;;4960763;28;20098;-77
2021/12/24 06:23:23;;;;;;;107.97;68.15;;;3.70;99.90;;;;;;4961825;28;20040;-75
2021/12/24 06:25:52;;;;;;;124.88;79.10;;;3.60;99.90;;;;;;4961112;28;20026;-76
2021/12/24 06:28:18;;;;;;;128.23;80.15;;;3.60;99.90;;;;;;4962428;28;20482;-70
2021/12/24 06:30:44;;;;;;;140.95;83.57;;;3.50;99.90;;;;;;4961641;28;20019;-77
2021/12/24 06:33:10;;;;;;;146.07;90.65;;;3.40;99.90;;;;;;4966619;28;20285;-76
2021/12/24 06:35:36;;;;;;;149.00;94.03;;;3.40;99.90;;;;;;4966468;28;20027;-77
2021/12/24 06:38:04;;;;;;;157.48;99.53;;;3.30;99.90;;;;;;4965294;28;20398;-77
2021/12/24 06:40:30;;;;;;;161.82;104.97;;;3.40;99.90;;;;;;4967332;28;20027;-77
2021/12/24 06:42:56;;;;;;;144.85;93.47;;;3.30;99.90;;;;;;4972823;29;20035;-77
2021/12/24 06:45:24;;;;;;;163.02;98.38;;;3.30;99.90;;;;;;4969918;29;20024;-74
2021/12/24 06:47:55;;;;;;;165.15;99.35;;;3.30;99.90;;;;;;4966425;28;20043;-77
2021/12/24 06:50:23;;;;;;;166.73;102.05;;;3.40;99.90;;;;;;4965118;28;20043;-76
2021/12/24 06:52:49;;;;;;;159.40;96.90;;;3.40;99.90;;;;;;4967686;28;20023;-77
2021/12/24 06:55:15;;;;;;;148.45;94.45;;;3.40;99.90;;;;;;4966740;28;20474;-77
2021/12/24 06:57:42;;;;;;;133.88;87.82;;;3.50;99.90;;;;;;4967813;29;20027;-76
2021/12/24 07:00:13;;;;;;;154.82;98.50;;;3.60;99.90;;;;;;4965536;29;20042;-77
2021/12/24 07:02:40;;;;;;;159.93;97.78;;;3.60;99.90;;;;;;4980373;28;20334;-75
2021/12/24 07:05:06;;;;;;;140.20;90.60;;;3.70;99.90;;;;;;4965373;28;20035;-75
2021/12/24 07:07:32;;;;;;;145.65;93.47;;;3.80;99.90;;;;;;4969101;28;20061;-71
2021/12/24 07:09:58;;;;;;;164.32;98.97;;;3.80;99.90;;;;;;4965343;28;20031;-75
2021/12/24 07:12:24;;;;;;;159.30;97.15;;;3.90;99.90;;;;;;4967493;29;20077;-75
2021/12/24 07:14:50;;;;;;;158.32;103.13;;;4.00;99.90;;;;;;4965238;28;20460;-75
2021/12/24 07:17:16;;;;;;;169.45;112.85;;;4.10;99.90;;;;;;4965618;28;20030;-77
2021/12/24 07:19:43;;;;;;;194.57;122.40;;;4.20;99.90;;;;;;4965867;29;20035;-77
2021/12/24 07:22:09;;;;;;;202.90;124.10;;;4.40;99.90;;;;;;4965448;29;20066;-76
2021/12/24 07:24:36;;;;;;;215.40;123.80;;;4.50;99.90;;;;;;4966146;28;20031;-77
2021/12/24 07:27:03;;;;;;;205.98;128.20;;;4.60;99.90;;;;;;4968349;28;20038;-77
2021/12/24 07:29:30;;;;;;;212.18;133.27;;;4.70;99.90;;;;;;4963426;28;20042;-77
2021/12/24 07:31:56;;;;;;;240.25;145.65;;;4.90;99.90;;;;;;4966646;29;20462;-77
2021/12/24 07:34:22;;;;;;;217.73;130.43;;;5.10;99.90;;;;;;4969816;28;20034;-78
2021/12/24 07:36:49;;;;;;;235.52;142.93;;;5.20;99.90;;;;;;4963621;29;20055;-78
2021/12/24 07:39:14;;;;;;;250.25;157.18;;;5.40;99.90;;;;;;4964157;28;20134;-77
2021/12/24 07:41:41;;;;;;;221.52;133.55;;;5.60;99.90;;;;;;4963806;28;20125;-76
2021/12/24 07:44:08;;;;;;;208.43;128.77;;;5.80;99.90;;;;;;4963399;29;20027;-77
2021/12/24 07:46:46;;;;;;;272.85;178.30;;;6.00;99.90;;;;;;4965188;28;20481;-76
2021/12/24 07:54:28;;;;;;;298.92;197.93;;;6.60;99.90;;;;;;4966233;29;20035;-78
2021/12/24 07:56:55;;;;;;;283.10;187.23;;;6.80;99.90;;;;;;4965954;28;20026;-75
2021/12/24 07:59:21;;;;;;;214.32;143.43;;;6.90;99.90;;;;;;4963559;28;20099;-77
2021/12/24 08:01:47;;;;;;;128.38;78.97;;;7.10;99.90;;;;;;4965120;29;20545;-78
2021/12/24 08:04:14;;;;;;;79.57;46.65;;;7.30;99.90;;;;;;4962847;28;20071;-78
2021/12/24 08:06:41;;;;;;;130.30;80.85;;;7.50;99.90;;;;;;4963996;28;20053;-77
2021/12/24 08:09:08;;;;;;;109.97;64.53;;;7.80;99.90;;;;;;4963936;29;20039;-75
2021/12/24 08:11:35;;;;;;;123.63;73.10;;;7.90;99.90;;;;;;4962436;29;20480;-76
2021/12/24 08:14:03;;;;;;;143.68;83.05;;;8.10;99.90;;;;;;4964230;28;20129;-72
2021/12/24 08:16:30;;;;;;;237.43;149.90;;;8.30;99.90;;;;;;4962729;28;20030;-77
2021/12/24 08:18:58;;;;;;;272.95;173.27;;;8.40;99.90;;;;;;4964908;29;20042;-72
2021/12/24 08:21:24;;;;;;;265.58;171.85;;;8.60;99.90;;;;;;4964171;28;20015;-75
2021/12/24 08:23:51;;;;;;;257.73;158.10;;;8.70;99.90;;;;;;4963016;28;20122;-75
2021/12/24 08:26:18;;;;;;;220.30;139.95;;;8.90;99.90;;;;;;4963827;28;20023;-72
2021/12/24 08:28:44;;;;;;;203.60;121.88;;;9.00;99.90;;;;;;4963910;28;20399;-76
2021/12/24 08:31:11;;;;;;;192.95;112.65;;;9.20;99.60;;;;;;4966206;28;20470;-76
2021/12/24 08:33:37;;;;;;;204.10;110.22;;;9.30;98.80;;;;;;4966652;28;20027;-77
2021/12/24 08:36:04;;;;;;;196.63;113.80;;;9.50;97.60;;;;;;4965954;28;20109;-73
2021/12/24 08:38:31;;;;;;;167.10;101.00;;;9.70;98.10;;;;;;4966098;28;20051;-73
2021/12/24 08:40:57;;;;;;;153.65;94.93;;;9.90;98.30;;;;;;4966634;28;20023;-77
2021/12/24 08:43:23;;;;;;;130.13;73.93;;;10.00;95.90;;;;;;4966792;28;20037;-77
2021/12/24 08:45:49;;;;;;;116.93;68.63;;;10.20;94.70;;;;;;4966834;29;20055;-78
2021/12/24 08:48:14;;;;;;;88.70;52.15;;;10.30;95.30;;;;;;4966304;29;20039;-77
2021/12/24 08:50:40;;;;;;;58.42;36.97;;;10.60;93.40;;;;;;4962927;29;20072;-71
2021/12/24 08:53:08;;;;;;;41.38;25.63;;;10.80;93.10;;;;;;4968344;28;20422;-77
2021/12/24 08:55:34;;;;;;;35.47;21.15;;;11.00;92.30;;;;;;4970440;29;20059;-77
2021/12/24 08:58:02;;;;;;;28.35;15.25;;;11.30;91.50;;;;;;4965709;28;20050;-75
2021/12/24 09:00:29;;;;;;;24.13;12.50;;;11.50;90.60;;;;;;4969947;28;20023;-76
2021/12/24 09:02:54;;;;;;;24.75;11.27;;;11.70;90.70;;;;;;4968439;28;20035;-73
2021/12/24 09:05:20;;;;;;;15.35;7.10;;;11.90;90.00;;;;;;4970694;28;20048;-76
2021/12/24 09:07:47;;;;;;;12.30;5.90;;;12.00;89.00;;;;;;4967429;29;20474;-75
2021/12/24 09:10:13;;;;;;;13.30;5.80;;;12.20;86.70;;;;;;4970232;29;20058;-73
2021/12/24 09:12:43;;;;;;;9.10;5.20;;;12.40;85.20;;;;;;4969154;28;20410;-74
2021/12/24 09:15:14;;;;;;;10.43;4.22;;;12.50;84.10;;;;;;4971120;28;20030;-76
2021/12/24 09:17:45;;;;;;;8.65;4.20;;;12.60;83.20;;;;;;4967685;28;20040;-75
2021/12/24 09:20:19;;;;;;;11.67;4.50;;;12.70;82.50;;;;;;4959161;29;20086;-75
2021/12/24 09:22:46;;;;;;;6.85;3.63;;;12.80;82.20;;;;;;4956752;28;20027;-76
2021/12/24 09:25:12;;;;;;;7.45;3.75;;;13.00;80.90;;;;;;4963447;28;20032;-76
2021/12/24 09:27:38;;;;;;;7.97;4.32;;;13.00;80.90;;;;;;4967252;28;20019;-77
2021/12/24 09:30:05;;;;;;;10.95;4.20;;;13.10;80.40;;;;;;4969170;28;20078;-74
2021/12/24 09:32:31;;;;;;;9.43;4.90;;;13.30;79.90;;;;;;4968632;28;20038;-77
2021/12/24 09:34:57;;;;;;;6.82;3.20;;;13.40;79.40;;;;;;4968768;29;20023;-77
2021/12/24 09:37:23;;;;;;;7.38;3.17;;;13.50;78.30;;;;;;4968941;29;20035;-75
2021/12/24 09:39:49;;;;;;;9.43;3.28;;;13.50;78.10;;;;;;4969425;29;20042;-76
2021/12/24 09:42:15;;;;;;;9.88;4.18;;;13.60;78.20;;;;;;4969589;28;20419;-73
2021/12/24 09:44:41;;;;;;;9.77;4.80;;;13.60;77.20;;;;;;4968789;28;20125;-75
2021/12/24 09:47:07;;;;;;;9.70;4.20;;;13.60;77.10;;;;;;4968153;28;20020;-73
2021/12/24 09:49:33;;;;;;;7.53;3.40;;;13.60;77.00;;;;;;4968400;28;20073;-76
2021/12/24 09:52:01;;;;;;;8.68;4.43;;;13.70;77.20;;;;;;4970385;28;20190;-76
2021/12/24 09:54:27;;;;;;;9.13;3.80;;;13.90;76.60;;;;;;4965956;28;20027;-77
2021/12/24 09:56:55;;;;;;;7.38;2.85;;;13.90;76.10;;;;;;4967528;28;20488;-75
2021/12/24 09:59:24;;;;;;;7.25;3.45;;;13.90;76.10;;;;;;4982669;28;20062;-73
2021/12/24 10:01:55;;;;;;;10.07;4.18;;;13.90;75.90;;;;;;4966640;28;20028;-77
2021/12/24 10:04:23;;;;;;;8.88;3.15;;;14.00;76.20;;;;;;4967998;28;20039;-72
2021/12/24 10:06:59;;;;;;;5.47;3.13;;;14.00;76.90;;;;;;4971515;28;20086;-74
2021/12/24 10:09:31;;;;;;;6.70;3.35;;;14.00;75.50;;;;;;4970323;28;20047;-75
2021/12/24 10:12:01;;;;;;;6.28;3.10;;;14.00;74.90;;;;;;4969755;28;20035;-75
2021/12/24 10:14:33;;;;;;;5.90;3.28;;;14.00;75.20;;;;;;4968405;28;20031;-75
2021/12/24 10:17:00;;;;;;;9.00;3.50;;;14.00;75.40;;;;;;4967080;28;20113;-76
2021/12/24 10:19:26;;;;;;;9.25;2.75;;;14.20;75.70;;;;;;4968053;28;20055;-72
2021/12/24 10:22:03;;;;;;;6.45;3.17;;;14.20;75.20;;;;;;4971833;29;20027;-74
2021/12/24 10:24:30;;;;;;;7.78;3.00;;;14.20;76.10;;;;;;4972927;28;20027;-76
2021/12/24 10:26:59;;;;;;;7.28;3.38;;;14.20;75.80;;;;;;4972590;28;20027;-77
2021/12/24 10:29:34;;;;;;;7.18;3.35;;;14.30;75.30;;;;;;4968072;28;20035;-75
2021/12/24 10:32:12;;;;;;;6.43;2.92;;;14.20;74.70;;;;;;4970286;28;20031;-72
2021/12/24 10:34:39;;;;;;;9.05;2.78;;;14.20;75.50;;;;;;4968528;28;20367;-75
2021/12/24 10:37:09;;;;;;;5.55;3.00;;;14.30;75.80;;;;;;4967444;28;20035;-76
2021/12/24 10:39:43;;;;;;;5.55;2.63;;;14.30;74.70;;;;;;4967402;28;20055;-75
2021/12/24 10:42:22;;;;;;;4.68;2.40;;;14.30;74.60;;;;;;4965090;28;20046;-76
2021/12/24 10:44:51;;;;;;;5.28;2.25;;;14.30;75.30;;;;;;4964900;28;20028;-72
2021/12/24 10:47:28;;;;;;;7.32;2.63;;;14.50;74.50;;;;;;4963914;28;20019;-76
2021/12/24 10:50:09;;;;;;;6.45;3.42;;;14.50;74.60;;;;;;4966399;28;20049;-77
2021/12/24 10:55:35;;;;;;;6.70;3.13;;;14.70;74.70;;;;;;4960400;28;20160;-75
2021/12/24 10:58:03;;;;;;;7.13;3.40;;;14.70;74.30;;;;;;4958404;28;20090;-75
2021/12/24 11:00:48;;;;;;;6.30;3.55;;;14.60;73.80;;;;;;4961048;28;20030;-77
2021/12/24 11:03:22;;;;;;;7.78;3.08;;;14.60;74.20;;;;;;4959527;28;20433;-75
2021/12/24 11:05:50;;;;;;;7.90;3.35;;;14.60;74.00;;;;;;4958163;28;20114;-77
2021/12/24 11:08:18;;;;;;;7.63;4.07;;;14.60;74.00;;;;;;4956332;28;20494;-71
2021/12/24 11:10:54;;;;;;;10.27;3.60;;;14.70;75.00;;;;;;4958758;28;20078;-77
2021/12/24 11:13:29;;;;;;;6.78;3.60;;;14.70;74.60;;;;;;4957008;28;20043;-71
2021/12/24 11:15:57;;;;;;;7.30;3.10;;;14.80;74.60;;;;;;4957327;28;20458;-73
2021/12/24 11:18:24;;;;;;;5.57;3.10;;;14.80;74.10;;;;;;4956515;28;20027;-71
2021/12/24 11:20:58;;;;;;;7.47;3.13;;;14.80;73.70;;;;;;4957451;28;20081;-76
2021/12/24 11:23:28;;;;;;;6.65;3.15;;;14.90;74.00;;;;;;4957873;28;20401;-76
2021/12/24 11:25:58;;;;;;;7.13;3.28;;;14.90;74.00;;;;;;4957626;28;20500;-76
2021/12/24 11:28:26;;;;;;;10.43;3.42;;;14.90;74.00;;;;;;4958143;28;20050;-74
2021/12/24 11:31:08;;;;;;;8.13;3.38;;;14.90;74.60;;;;;;4956960;28;20113;-76
2021/12/24 11:33:35;;;;;;;6.07;2.85;;;15.00;74.10;;;;;;4956443;28;20099;-77
2021/12/24 11:36:04;;;;;;;9.55;3.88;;;15.00;74.40;;;;;;4956891;28;20454;-72
2021/12/24 11:38:39;;;;;;;6.45;3.47;;;15.10;74.60;;;;;;4956907;28;20118;-74
2021/12/24 11:41:13;;;;;;;7.47;3.17;;;15.10;73.80;;;;;;4957214;28;20031;-71
2021/12/24 11:43:41;;;;;;;6.07;2.90;;;15.10;74.30;;;;;;4956116;28;20029;-77
2021/12/24 11:46:11;;;;;;;6.65;2.90;;;15.20;74.20;;;;;;4956264;28;20398;-77
2021/12/24 11:48:38;;;;;;;9.35;3.80;;;15.10;74.10;;;;;;4956553;28;20039;-77
2021/12/24 11:51:09;;;;;;;5.97;3.50;;;15.20;74.00;;;;;;4956104;29;20019;-75
2021/12/24 11:53:36;;;;;;;11.73;3.85;;;15.20;74.20;;;;;;4956463;28;20019;-76
2021/12/24 11:56:07;;;;;;;9.43;4.00;;;15.30;74.20;;;;;;4956229;28;20027;-74
2021/12/24 11:58:41;;;;;;;6.50;3.60;;;15.20;74.70;;;;;;4955563;28;20023;-71
2021/12/24 12:01:07;;;;;;;11.05;4.43;;;15.30;73.60;;;;;;4956220;28;20031;-76
2021/12/24 12:03:40;;;;;;;8.25;4.28;;;15.30;74.00;;;;;;4956005;29;20546;-72
2021/12/24 12:06:11;;;;;;;6.95;3.70;;;15.40;74.00;;;;;;4956027;29;20051;-76
2021/12/24 12:08:40;;;;;;;13.25;4.10;;;15.40;73.80;;;;;;4955489;28;20482;-72
2021/12/24 12:11:05;;;;;;;10.35;4.20;;;15.40;73.20;;;;;;4955652;28;20070;-73
2021/12/24 12:13:47;;;;;;;11.27;4.72;;;15.30;73.70;;;;;;4955161;28;20023;-74
2021/12/24 12:16:20;;;;;;;11.85;4.68;;;15.30;73.90;;;;;;4955361;28;20490;-75
2021/12/24 12:19:04;;;;;;;6.10;3.50;;;15.30;74.20;;;;;;4955527;28;20027;-76
2021/12/24 12:21:40;;;;;;;13.10;5.32;;;15.30;73.40;;;;;;4955272;28;20050;-72
2021/12/24 12:26:43;;;;;;;12.73;5.70;;;15.20;73.90;;;;;;4954861;28;20035;-76
2021/12/24 12:29:42;;;;;;;11.07;5.45;;;15.20;74.40;;;;;;4953841;28;20039;-76
2021/12/24 12:32:17;;;;;;;12.55;5.38;;;15.20;73.90;;;;;;4955484;28;20043;-72
2021/12/24 12:34:42;;;;;;;9.45;4.68;;;15.30;73.90;;;;;;4954879;29;20042;-76
2021/12/24 12:37:24;;;;;;;6.78;4.18;;;15.30;73.80;;;;;;4954483;28;20031;-75
2021/12/24 12:40:24;;;;;;;11.18;3.58;;;15.30;73.40;;;;;;4955000;28;20417;-76
2021/12/24 12:42:56;;;;;;;6.05;3.28;;;15.50;73.60;;;;;;4954969;28;20498;-76
2021/12/24 12:45:43;;;;;;;7.78;3.28;;;15.40;73.20;;;;;;4954960;29;20038;-76
2021/12/24 12:48:23;;;;;;;7.22;3.50;;;15.50;73.30;;;;;;4954256;28;20053;-76
2021/12/24 12:50:57;;;;;;;9.98;3.53;;;15.50;73.30;;;;;;4954598;28;20039;-76
2021/12/24 12:53:39;;;;;;;10.05;4.18;;;15.50;73.70;;;;;;4954952;29;20031;-74
2021/12/24 12:56:31;;;;;;;8.07;3.60;;;15.50;73.70;;;;;;4954666;28;20086;-76
2021/12/24 12:59:03;;;;;;;8.52;4.00;;;15.50;73.80;;;;;;4953107;28;20504;-74
2021/12/24 13:01:30;;;;;;;10.43;4.47;;;15.60;74.10;;;;;;4954984;29;20556;-71
2021/12/24 13:04:03;;;;;;;11.18;5.68;;;15.60;74.00;;;;;;4954760;29;20054;-73
2021/12/24 13:06:35;;;;;;;12.98;5.20;;;15.60;73.80;;;;;;4954862;28;20039;-71
2021/12/24 13:09:07;;;;;;;11.70;4.65;;;15.70;73.80;;;;;;4954670;29;20047;-71
2021/12/24 13:11:42;;;;;;;7.45;3.72;;;15.60;73.60;;;;;;4954910;28;20035;-74
2021/12/24 13:14:10;;;;;;;8.52;3.42;;;15.60;73.20;;;;;;4954487;29;20034;-71
2021/12/24 13:16:46;;;;;;;7.88;2.78;;;15.60;73.40;;;;;;4954328;28;20094;-76
2021/12/24 13:24:45;;;;;;;4.13;2.58;;;15.50;73.50;;;;;;4954501;29;20031;-76
2021/12/24 13:27:11;;;;;;;8.43;4.00;;;15.60;73.40;;;;;;4954374;28;20043;-75
2021/12/24 13:29:37;;;;;;;7.50;3.53;;;15.60;74.00;;;;;;4954217;28;20043;-75
2021/12/24 13:32:04;;;;;;;7.10;3.50;;;15.60;73.90;;;;;;4954217;28;20026;-75
2021/12/24 13:34:30;;;;;;;8.68;3.03;;;15.60;74.00;;;;;;4954819;28;20027;-70
2021/12/24 13:37:01;;;;;;;5.65;2.85;;;15.60;73.50;;;;;;4954200;28;20050;-76
2021/12/24 13:39:27;;;;;;;6.57;3.55;;;15.60;73.20;;;;;;4954357;28;20031;-71
2021/12/24 13:42:03;;;;;;;6.72;2.80;;;15.60;73.40;;;;;;4953919;29;20024;-76
2021/12/24 13:44:32;;;;;;;14.05;4.90;;;15.50;73.00;;;;;;4954014;28;20031;-76
2021/12/24 13:47:04;;;;;;;6.90;2.80;;;15.50;73.30;;;;;;4954131;28;20049;-71
2021/12/24 13:54:53;;;;;;;6.05;3.10;;;15.40;72.50;;;;;;4954140;29;20084;-76
2021/12/24 13:57:21;;;;;;;6.00;3.50;;;15.40;73.10;;;;;;4954100;29;20026;-76
2021/12/24 13:59:52;;;;;;;5.32;2.85;;;15.40;72.80;;;;;;4954609;28;20434;-76
2021/12/24 14:02:18;;;;;;;10.13;5.00;;;15.30;73.10;;;;;;4954258;28;20038;-74
2021/12/24 14:04:44;;;;;;;12.63;5.15;;;15.30;73.60;;;;;;4953963;28;20628;-71
2021/12/24 14:07:10;;;;;;;10.43;5.13;;;15.20;73.50;;;;;;4953273;29;20244;-70
2021/12/24 14:09:36;;;;;;;9.48;4.45;;;15.20;73.60;;;;;;4952866;29;20052;-75
2021/12/24 14:12:06;;;;;;;11.00;6.10;;;15.00;74.10;;;;;;4953055;29;20027;-74
2021/12/24 14:14:45;;;;;;;8.95;4.68;;;14.90;74.20;;;;;;4952890;28;20382;-70
2021/12/24 14:22:23;;;;;;;15.23;6.32;;;14.60;74.90;;;;;;4952437;29;20031;-78
2021/12/24 14:25:13;;;;;;;15.68;5.45;;;14.50;75.30;;;;;;4933182;29;20032;-78
2021/12/24 14:27:46;;;;;;;13.55;6.95;;;14.40;75.50;;;;;;4965126;28;20011;-78
2021/12/24 14:30:21;;;;;;;13.98;5.80;;;14.30;75.70;;;;;;4963064;28;20063;-79
2021/12/24 14:32:58;;;;;;;14.38;6.47;;;14.20;76.20;;;;;;4958926;29;20116;-77
2021/12/24 14:35:29;;;;;;;15.40;8.18;;;14.10;76.40;;;;;;4940937;29;20031;-77
2021/12/24 14:38:06;;;;;;;11.10;6.13;;;14.10;76.70;;;;;;4959056;28;20126;-77
2021/12/24 14:40:35;;;;;;;16.58;8.27;;;14.00;76.50;;;;;;4934189;29;20109;-77
2021/12/24 14:43:16;;;;;;;15.20;7.85;;;14.00;76.80;;;;;;4937482;29;20063;-78
2021/12/24 14:45:45;;;;;;;16.92;8.50;;;13.90;77.00;;;;;;4944112;29;20110;-77
2021/12/24 14:48:26;;;;;;;20.02;9.88;;;13.70;77.40;;;;;;4964694;29;20106;-76
2021/12/24 14:51:06;;;;;;;20.27;9.38;;;13.60;77.70;;;;;;4952207;29;20110;-73
2021/12/24 14:53:36;;;;;;;30.95;14.55;;;13.60;77.80;;;;;;4951193;29;20055;-77
2021/12/24 14:56:34;;;;;;;36.00;18.67;;;13.60;78.00;;;;;;4951971;29;20031;-75
2021/12/24 14:59:02;;;;;;;45.63;26.35;;;13.50;78.70;;;;;;4956222;29;20054;-78
2021/12/24 15:01:42;;;;;;;44.00;25.83;;;13.40;79.00;;;;;;4974159;28;20019;-80